Beaver Lake, New Jersey
Current Conditions -  °F | °C
As of 6:53 AM on Thursday 27 Nov 2014 (Local Time) from KFWN Reporting Station
Overcast Overcast  
Wind Chill: 32°   Ceiling: 6000
Heat Index: 32°   Visibility: 10mi
Dew Point: 28°   Wind: 3mph
Humidity: 85%   Direction: 140°SE
Pressure: 29.95"   Gusts: NA
Location:  41.1177°N, 74.5998°W
Report Text: KFWN 271153Z AUTO 14003KT 10SM BKN060 OVC120 00/M02 A2995 RMK AO2 SLP145 70088 T00001022 10017 20000 51013
Loading
Personal Weather Stations






























Interactive Weather Map New forecast layout! Learn more

10-Day Weather Forecast

Advertisements
Track Severe Weather on mobile